Leader — WCY8495 — position and weather

sailwx.info

Track history (hours):
 
Tides and Currents Weather Stations Pressure Air Temp Water Temp Dewpoint Dewpoint Depression Visibility Wind Speed Wind Dir Waves Ship Positions

Leader

Owner: Crowley Marine Services, SEATTLE, WA. More information available from US FCC via Universal Licensing System and Coast Guard Vessel Documentation Center.

Last reported at 2017-Nov-19 07:22 UTC. Time now 2017-Nov-19 08:16 UTC.
Position N 33°45' W 118°13'.

Length 30 m; draft 4.9 m.

Type: Tug. MMSI: 366760650.

Date/timePositionNaut miles runAvg speedWind from/ knotsBaromVisibWave heightAir tempDewpointWater temp
2017-Nov-19 07:22N 33°45' W 118°13'0 0.8
2017-Nov-19 06:57N 33°45' W 118°13'0 0.4
2017-Nov-19 06:30N 33°45' W 118°13'1 1.2
2017-Nov-19 05:56N 33°45' W 118°13'3 1.4
2017-Nov-19 04:10N 33°43' W 118°15'2 0.8
2017-Nov-19 01:32N 33°44' W 118°17'0 0.0
2017-Nov-19 01:30N 33°44' W 118°17'0 0.0
2017-Nov-19 01:00N 33°44' W 118°17'0 0.0
2017-Nov-19 00:30N 33°44' W 118°17'0 0.0
2017-Nov-19 00:00N 33°44' W 118°17'0 0.0
2017-Nov-18 23:30N 33°44' W 118°17'0 0.0
2017-Nov-18 22:58N 33°44' W 118°17'0 0.0
2017-Nov-18 22:30N 33°44' W 118°17'0 0.0
2017-Nov-18 22:00N 33°44' W 118°17'0 0.0
2017-Nov-18 21:30N 33°44' W 118°17'0 0.0
2017-Nov-18 21:00N 33°44' W 118°17'0 0.0
2017-Nov-18 20:30N 33°44' W 118°17'0 0.0
2017-Nov-16 20:22N 33°44' W 118°17'0 0.0
2017-Nov-16 20:00N 33°44' W 118°17'3 1.0
2017-Nov-16 17:03N 33°45' W 118°13'0 0.1
2017-Nov-16 15:07N 33°45' W 118°13'1 5.6
2017-Nov-16 14:56N 33°44' W 118°12'1 2.2
2017-Nov-16 14:29N 33°43' W 118°11'0 0.0
2017-Nov-16 14:00N 33°43' W 118°11'0 0.1
2017-Nov-16 13:30N 33°44' W 118°11'2 4.0
2017-Nov-16 13:00N 33°45' W 118°13'1 1.5
2017-Nov-16 12:30N 33°45' W 118°14'0 0.3
2017-Nov-16 12:00N 33°45' W 118°14'1 1.5
2017-Nov-16 11:30N 33°45' W 118°13'2 3.7
2017-Nov-16 10:59N 33°44' W 118°11'3 6.6
2017-Nov-16 10:30N 33°46' W 118°13'0 0.6
2017-Nov-16 10:00N 33°46' W 118°13'2 3.5
2017-Nov-16 09:30N 33°44' W 118°13'3 0.6
2017-Nov-16 04:06N 33°44' W 118°17'0 0.0
2017-Nov-16 03:51N 33°44' W 118°17'0 0.0
2017-Nov-15 23:08N 33°44' W 118°17'0 0.0
2017-Nov-15 23:00N 33°44' W 118°17'0 0.0
2017-Nov-15 22:28N 33°44' W 118°17'0 0.0
2017-Nov-15 21:58N 33°44' W 118°17'0 0.0
2017-Nov-15 21:26N 33°44' W 118°17'0 0.0
2017-Nov-15 20:57N 33°44' W 118°17'0 0.0
2017-Nov-15 20:29N 33°44' W 118°17'0 0.0
2017-Nov-15 17:49N 33°44' W 118°17'1 0.3
2017-Nov-15 15:45N 33°44' W 118°16'1 3.4
2017-Nov-15 15:30N 33°45' W 118°17'1 1.4
2017-Nov-15 14:33N 33°46' W 118°16'0 0.4
2017-Nov-15 14:11N 33°46' W 118°16'0 1.0
2017-Nov-15 13:58N 33°45' W 118°16'1 2.8
2017-Nov-15 13:30N 33°44' W 118°17'1 2.6
2017-Nov-15 13:00N 33°43' W 118°16'2 4.5
2017-Nov-15 12:29N 33°43' W 118°13'0 0.3
2017-Nov-15 12:00N 33°44' W 118°13'1 0.3
2017-Nov-15 08:07N 33°45' W 118°12'2 1.6
2017-Nov-15 07:06N 33°45' W 118°14'0 0.3
2017-Nov-15 07:00N 33°45' W 118°14'2 0.8
2017-Nov-15 04:36N 33°44' W 118°13'1 2.9
2017-Nov-15 04:21N 33°45' W 118°12'0 0.4
2017-Nov-15 03:59N 33°45' W 118°12'0 0.0
2017-Nov-14 12:31N 33°45' W 118°12'3 2.9
2017-Nov-14 11:37N 33°44' W 118°15'0 1.1
2017-Nov-14 11:29N 33°44' W 118°15'2 3.7
2017-Nov-14 11:00N 33°42' W 118°15'2 3.8
2017-Nov-14 10:30N 33°44' W 118°16'1 1.2
2017-Nov-14 09:47N 33°44' W 118°17'0 0.0
2017-Nov-14 09:23N 33°44' W 118°17'0 0.0
2017-Nov-14 08:59N 33°44' W 118°17'1 0.3
2017-Nov-14 05:03N 33°45' W 118°16'1 5.9
2017-Nov-14 04:56N 33°45' W 118°16'1 0.2
2017-Nov-14 01:46N 33°44' W 118°17'0 0.0
2017-Nov-14 00:49N 33°44' W 118°17'0 0.0
2017-Nov-14 00:30N 33°44' W 118°17'0 0.0
2017-Nov-14 00:00N 33°44' W 118°17'0 0.0
2017-Nov-13 23:27N 33°44' W 118°17'1 1.8
2017-Nov-13 23:00N 33°45' W 118°16'0 0.1
2017-Nov-13 22:30N 33°45' W 118°16'2 3.5
2017-Nov-13 22:00N 33°43' W 118°16'1 0.0
2017-Nov-12 09:16N 33°44' W 118°17'4 0.4
2017-Nov-12 01:02N 33°44' W 118°12'0 0.1
2017-Nov-12 00:22N 33°44' W 118°12'4 3.4
2017-Nov-11 23:18N 33°44' W 118°17'  
2017-Nov-09 12:49N 33°45' W 118°14'  
Track history (hours):
 
Tides and Currents Weather Stations Pressure Air Temp Water Temp Dewpoint Dewpoint Depression Visibility Wind Speed Wind Dir Waves Ship Positions

Leader

Owner: Crowley Marine Services, SEATTLE, WA. More information available from US FCC via Universal Licensing System and Coast Guard Vessel Documentation Center.

Last reported at 2017-Nov-19 07:22 UTC. Time now 2017-Nov-19 08:16 UTC.
Position N 33°45' W 118°13'.

Length 30 m; draft 4.9 m.

Type: Tug. MMSI: 366760650.

Date/timePositionNaut miles runAvg speedWind from/ knotsBaromVisibWave heightAir tempDewpointWater temp
2017-Nov-19 07:22N 33°45' W 118°13'0 0.8
2017-Nov-19 06:57N 33°45' W 118°13'0 0.4
2017-Nov-19 06:30N 33°45' W 118°13'1 1.2
2017-Nov-19 05:56N 33°45' W 118°13'3 1.4
2017-Nov-19 04:10N 33°43' W 118°15'2 0.8
2017-Nov-19 01:32N 33°44' W 118°17'0 0.0
2017-Nov-19 01:30N 33°44' W 118°17'0 0.0
2017-Nov-19 01:00N 33°44' W 118°17'0 0.0
2017-Nov-19 00:30N 33°44' W 118°17'0 0.0
2017-Nov-19 00:00N 33°44' W 118°17'0 0.0
2017-Nov-18 23:30N 33°44' W 118°17'0 0.0
2017-Nov-18 22:58N 33°44' W 118°17'0 0.0
2017-Nov-18 22:30N 33°44' W 118°17'0 0.0
2017-Nov-18 22:00N 33°44' W 118°17'0 0.0
2017-Nov-18 21:30N 33°44' W 118°17'0 0.0
2017-Nov-18 21:00N 33°44' W 118°17'0 0.0
2017-Nov-18 20:30N 33°44' W 118°17'0 0.0
2017-Nov-16 20:22N 33°44' W 118°17'0 0.0
2017-Nov-16 20:00N 33°44' W 118°17'3 1.0
2017-Nov-16 17:03N 33°45' W 118°13'0 0.1
2017-Nov-16 15:07N 33°45' W 118°13'1 5.6
2017-Nov-16 14:56N 33°44' W 118°12'1 2.2
2017-Nov-16 14:29N 33°43' W 118°11'0 0.0
2017-Nov-16 14:00N 33°43' W 118°11'0 0.1
2017-Nov-16 13:30N 33°44' W 118°11'2 4.0
2017-Nov-16 13:00N 33°45' W 118°13'1 1.5
2017-Nov-16 12:30N 33°45' W 118°14'0 0.3
2017-Nov-16 12:00N 33°45' W 118°14'1 1.5
2017-Nov-16 11:30N 33°45' W 118°13'2 3.7
2017-Nov-16 10:59N 33°44' W 118°11'3 6.6
2017-Nov-16 10:30N 33°46' W 118°13'0 0.6
2017-Nov-16 10:00N 33°46' W 118°13'2 3.5
2017-Nov-16 09:30N 33°44' W 118°13'3 0.6
2017-Nov-16 04:06N 33°44' W 118°17'0 0.0
2017-Nov-16 03:51N 33°44' W 118°17'0 0.0
2017-Nov-15 23:08N 33°44' W 118°17'0 0.0
2017-Nov-15 23:00N 33°44' W 118°17'0 0.0
2017-Nov-15 22:28N 33°44' W 118°17'0 0.0
2017-Nov-15 21:58N 33°44' W 118°17'0 0.0
2017-Nov-15 21:26N 33°44' W 118°17'0 0.0
2017-Nov-15 20:57N 33°44' W 118°17'0 0.0
2017-Nov-15 20:29N 33°44' W 118°17'0 0.0
2017-Nov-15 17:49N 33°44' W 118°17'1 0.3
2017-Nov-15 15:45N 33°44' W 118°16'1 3.4
2017-Nov-15 15:30N 33°45' W 118°17'1 1.4
2017-Nov-15 14:33N 33°46' W 118°16'0 0.4
2017-Nov-15 14:11N 33°46' W 118°16'0 1.0
2017-Nov-15 13:58N 33°45' W 118°16'1 2.8
2017-Nov-15 13:30N 33°44' W 118°17'1 2.6
2017-Nov-15 13:00N 33°43' W 118°16'2 4.5
2017-Nov-15 12:29N 33°43' W 118°13'0 0.3
2017-Nov-15 12:00N 33°44' W 118°13'1 0.3
2017-Nov-15 08:07N 33°45' W 118°12'2 1.6
2017-Nov-15 07:06N 33°45' W 118°14'0 0.3
2017-Nov-15 07:00N 33°45' W 118°14'2 0.8
2017-Nov-15 04:36N 33°44' W 118°13'1 2.9
2017-Nov-15 04:21N 33°45' W 118°12'0 0.4
2017-Nov-15 03:59N 33°45' W 118°12'0 0.0
2017-Nov-14 12:31N 33°45' W 118°12'3 2.9
2017-Nov-14 11:37N 33°44' W 118°15'0 1.1
2017-Nov-14 11:29N 33°44' W 118°15'2 3.7
2017-Nov-14 11:00N 33°42' W 118°15'2 3.8
2017-Nov-14 10:30N 33°44' W 118°16'1 1.2
2017-Nov-14 09:47N 33°44' W 118°17'0 0.0
2017-Nov-14 09:23N 33°44' W 118°17'0 0.0
2017-Nov-14 08:59N 33°44' W 118°17'1 0.3
2017-Nov-14 05:03N 33°45' W 118°16'1 5.9
2017-Nov-14 04:56N 33°45' W 118°16'1 0.2
2017-Nov-14 01:46N 33°44' W 118°17'0 0.0
2017-Nov-14 00:49N 33°44' W 118°17'0 0.0
2017-Nov-14 00:30N 33°44' W 118°17'0 0.0
2017-Nov-14 00:00N 33°44' W 118°17'0 0.0
2017-Nov-13 23:27N 33°44' W 118°17'1 1.8
2017-Nov-13 23:00N 33°45' W 118°16'0 0.1
2017-Nov-13 22:30N 33°45' W 118°16'2 3.5
2017-Nov-13 22:00N 33°43' W 118°16'1 0.0
2017-Nov-12 09:16N 33°44' W 118°17'4 0.4
2017-Nov-12 01:02N 33°44' W 118°12'0 0.1
2017-Nov-12 00:22N 33°44' W 118°12'4 3.4
2017-Nov-11 23:18N 33°44' W 118°17'  
2017-Nov-09 12:49N 33°45' W 118°14'  

Dump ship's entire track history